Aviation Digital Data Service (ADDS)

Output produced by METARs form (1104 UTC 19 January 2019)
found at http://www.aviationweather.gov/metar/data/
 
VDSR 191030Z 17005KT 9999 SCT017 29/19 Q1009
TAF VDSR 190500Z 1906/1924 20005KT 9999 SCT017
       
VDSV 191030Z 24005KT 108V280 9999 FEW017 29/22 Q1010
TAF VDSV 190500Z 1906/1924 02006KT 9999 SCT017